Hauptseite
METAR-TAF:

METAR-TAF

Flughäfen :

Militärflugplatz Évreux-Fauville

Évreux, Frankreich

Breite: 49-01N, Länge: 001-13E, Höhe: 141 m

Beobachtung

Neuester Wetterbericht von vor 30 Minuten, um 18:00 UTC
Wind 5 kt aus Süd/Südost, variierte zwischen Ost/Südost und Süd
Temperatur 34°C
Luftfeuchtigkeit 18%
Luftdruck 1016 hPa
Sichtweite 10 km oder mehr
keine Wolken unter 1500 m und keine Kumulonimbus oder Gewitterwolken

METAR: LFOE 061800Z AUTO 16005KT 120V180 CAVOK 34/06 Q1016 NOSIG

Zeit: 20:30 (18:30 UTC)

Prognose

Neuester Wetterbericht von vor 4 Stunden und 30 Minuten, um 14:00 UTC
Gültige Prognose vom 06 um 15 UTC bis 07 um 15 UTC
Wind 4 kt aus Süd/Südost
Sichtweite 10 km oder mehr
keine Wolken unter 1500 m und keine Kumulonimbus oder Gewitterwolken
Übergehend zu
vom 06 um 18 UTC bis 06 um 20 UTC
Wind 3 kt aus unterschiedlichen Richtungen

TAF: LFOE 061400Z 0615/0715 16004KT CAVOK BECMG 0618/0620 VRB03KT

Wetterbeobachtungen und Prognosen von mehr als 4000 Flughäfen (METAR und TAF Bericht).

Die verfügbaren Stationen werden durch gelbe und rote Markierungen auf der Karte dargestellt.

Führen Sie die Maus auf sie, um den Namen der Station zu sehen.

Darauf klicken, um die Beobachtung von Wetterbeobachtungen und Prognosen zu sehen.

Um die Karte zu ändern : klicken Sie auf den grünen Tasten mit einem schwarzen Kreuz Zum Vergrößern, auf den grünen Button mit einem Gedankenstrich zu verkleinern, oder auf die grünen Pfeile für benachbarte Karten.


METAR-TAF: